createdAt,value
2022-08-29T00:00:17.904Z,98030.47
2022-08-29T00:02:19.641Z,98034.78
2022-08-29T00:04:21.173Z,98032.22
2022-08-29T00:06:22.524Z,98036.50
2022-08-29T00:08:23.853Z,98026.28
2022-08-29T00:10:25.532Z,98039.09
2022-08-29T00:12:26.857Z,98022.94
2022-08-29T00:14:28.599Z,98034.03
2022-08-29T00:16:29.984Z,98034.03
2022-08-29T00:18:31.327Z,98035.78
2022-08-29T00:20:34.342Z,98031.56
2022-08-29T00:22:36.114Z,98033.28
2022-08-29T00:24:37.414Z,98036.69
2022-08-29T00:26:38.811Z,98032.44
2022-08-29T00:28:40.118Z,98031.66
2022-08-29T00:30:41.435Z,98038.41
2022-08-29T00:32:42.823Z,98044.41
2022-08-29T00:34:44.127Z,98046.13
2022-08-29T00:36:48.907Z,98046.09
2022-08-29T00:38:50.940Z,98050.31
2022-08-29T00:40:52.616Z,98047.66
2022-08-29T00:43:12.347Z,98035.75
2022-08-29T00:45:13.676Z,98070.06
2022-08-29T00:47:14.978Z,98044.47
2022-08-29T00:49:16.285Z,98048.69
2022-08-29T00:51:17.663Z,98051.31
2022-08-29T00:53:19.839Z,98048.75
2022-08-29T00:55:22.563Z,98055.59
2022-08-29T00:57:23.866Z,98056.44
2022-08-29T00:59:26.010Z,98058.94
2022-08-29T01:01:29.140Z,98058.25
2022-08-29T01:03:30.518Z,98058.25
2022-08-29T01:05:32.350Z,98052.34
2022-08-29T01:07:33.843Z,98056.63
2022-08-29T01:09:39.313Z,98059.25
2022-08-29T01:11:59.200Z,98052.34
2022-08-29T01:14:01.202Z,98054.97
2022-08-29T01:16:03.043Z,98049.00
2022-08-29T01:18:04.890Z,98055.78
2022-08-29T01:20:06.210Z,98049.69
2022-08-29T01:22:07.598Z,98047.03
2022-08-29T01:24:09.896Z,98049.59
2022-08-29T01:26:11.839Z,98057.28
2022-08-29T01:28:13.452Z,98051.38
2022-08-29T01:30:15.260Z,98059.88
2022-08-29T01:32:17.199Z,98053.03
2022-08-29T01:34:18.631Z,98047.06
2022-08-29T01:36:19.947Z,98055.66
2022-08-29T01:38:27.709Z,98053.97
2022-08-29T01:40:29.141Z,98059.16
2022-08-29T01:42:35.429Z,98056.59
2022-08-29T01:44:38.874Z,98061.72
2022-08-29T01:46:40.195Z,98076.25
2022-08-29T01:48:41.511Z,98062.59
2022-08-29T01:50:42.866Z,98062.59
2022-08-29T01:52:44.175Z,98061.75
2022-08-29T01:54:45.551Z,98059.25
2022-08-29T01:56:46.926Z,98067.81
2022-08-29T01:58:48.233Z,98068.41
2022-08-29T02:00:49.636Z,98072.69
2022-08-29T02:02:50.970Z,98072.69
2022-08-29T02:04:52.279Z,98071.00
2022-08-29T02:06:55.670Z,98072.75
2022-08-29T02:08:56.982Z,98072.75
2022-08-29T02:10:58.581Z,98065.91
2022-08-29T02:12:59.895Z,98066.75
2022-08-29T02:15:01.335Z,97909.53
2022-08-29T02:17:02.725Z,98070.19
2022-08-29T02:19:04.078Z,98070.25
2022-08-29T02:21:05.382Z,98065.16
2022-08-29T02:23:17.294Z,98068.56
2022-08-29T02:25:43.676Z,98072.75
2022-08-29T02:27:45.222Z,98070.19
2022-08-29T02:29:46.605Z,98062.44
2022-08-29T02:31:48.717Z,98065.06
2022-08-29T02:33:50.229Z,98065.06
2022-08-29T02:35:51.551Z,98065.06
2022-08-29T02:37:52.930Z,98057.47
2022-08-29T02:39:54.411Z,98054.06
2022-08-29T02:41:55.764Z,98056.63
2022-08-29T02:43:58.712Z,98059.19
2022-08-29T02:46:00.035Z,98058.41
2022-08-29T02:48:01.413Z,98061.84
2022-08-29T02:50:02.803Z,98055.94
2022-08-29T02:52:06.677Z,98063.63
2022-08-29T02:54:08.140Z,98056.84
2022-08-29T02:56:09.928Z,98056.03
2022-08-29T02:58:15.987Z,98064.56
2022-08-29T03:00:17.498Z,98062.94
2022-08-29T03:02:18.874Z,98056.09
2022-08-29T03:04:20.211Z,98061.22
2022-08-29T03:06:21.619Z,98059.53
2022-08-29T03:08:22.952Z,98067.28
2022-08-29T03:10:24.259Z,98055.31
2022-08-29T03:12:25.598Z,98056.19
2022-08-29T03:14:29.552Z,98055.31
2022-08-29T03:16:30.918Z,98056.09
2022-08-29T03:18:32.299Z,98058.69
2022-08-29T03:20:33.638Z,98059.53
2022-08-29T03:22:35.016Z,98062.09
2022-08-29T03:24:36.466Z,98065.56
2022-08-29T03:26:37.770Z,98063.88
2022-08-29T03:28:39.117Z,98062.09
2022-08-29T03:30:40.431Z,98057.81
2022-08-29T03:32:41.739Z,98070.63
2022-08-29T03:34:43.990Z,98073.25
2022-08-29T03:36:45.318Z,98067.28
2022-08-29T03:38:46.712Z,98067.28
2022-08-29T03:40:48.151Z,98069.84
2022-08-29T03:42:49.521Z,98070.69
2022-08-29T03:44:50.879Z,98074.97
2022-08-29T03:46:52.371Z,98074.97
2022-08-29T03:48:53.750Z,98065.63
2022-08-29T03:50:56.535Z,98075.88
2022-08-29T03:52:58.133Z,98082.72
2022-08-29T03:55:00.167Z,98082.75
2022-08-29T03:57:01.475Z,98087.88
2022-08-29T03:59:02.803Z,98084.50
2022-08-29T04:01:04.114Z,98090.50
2022-08-29T04:03:05.575Z,98086.22
2022-08-29T04:05:09.828Z,98095.53
2022-08-29T04:07:13.224Z,98092.91
2022-08-29T04:09:14.576Z,98102.38
2022-08-29T04:11:15.968Z,98093.00
2022-08-29T04:13:17.283Z,98089.56
2022-08-29T04:15:18.590Z,98093.84
2022-08-29T04:17:19.911Z,98089.66
2022-08-29T04:19:21.284Z,98087.88
2022-08-29T04:21:22.674Z,98098.25
2022-08-29T04:23:23.971Z,98102.63
2022-08-29T04:25:25.275Z,98096.69
2022-08-29T04:27:26.626Z,98106.94
2022-08-29T04:29:28.004Z,98109.50
2022-08-29T04:31:29.400Z,98101.84
2022-08-29T04:33:31.262Z,98114.56
2022-08-29T04:35:32.625Z,98102.47
2022-08-29T04:37:33.938Z,98103.31
2022-08-29T04:39:35.238Z,98104.19
2022-08-29T04:41:36.804Z,98103.38
2022-08-29T04:43:38.154Z,98103.31
2022-08-29T04:45:40.629Z,98111.84
2022-08-29T04:47:41.962Z,98112.72
2022-08-29T04:49:43.364Z,98115.34
2022-08-29T04:51:44.666Z,98115.34
2022-08-29T04:53:46.688Z,98120.50
2022-08-29T04:55:48.051Z,98123.88
2022-08-29T04:57:49.419Z,98127.38
2022-08-29T04:59:50.850Z,98134.16
2022-08-29T05:01:54.401Z,98126.50
2022-08-29T05:03:56.560Z,98130.78
2022-08-29T05:05:57.981Z,98129.06
2022-08-29T05:07:59.318Z,98129.88
2022-08-29T05:10:00.996Z,98135.69
2022-08-29T05:12:07.095Z,98140.03
2022-08-29T05:14:11.068Z,98134.91
2022-08-29T05:16:12.467Z,98146.94
2022-08-29T05:18:13.912Z,98142.75
2022-08-29T05:20:15.495Z,98145.38
2022-08-29T05:22:16.795Z,98137.72
2022-08-29T05:24:18.164Z,98144.53
2022-08-29T05:26:19.498Z,98151.22
2022-08-29T05:28:20.819Z,98148.66
2022-08-29T05:30:35.143Z,98140.91
2022-08-29T05:32:36.819Z,98144.31
2022-08-29T05:34:38.415Z,98148.56
2022-08-29T05:36:39.740Z,98149.38
2022-08-29T05:38:41.046Z,98140.06
2022-08-29T05:40:42.432Z,98146.03
2022-08-29T05:42:43.876Z,98147.97
2022-08-29T05:44:45.268Z,98144.84
2022-08-29T05:46:46.716Z,98147.63
2022-08-29T05:48:48.550Z,98158.88
2022-08-29T05:50:49.858Z,98152.81
2022-08-29T05:52:51.189Z,98151.88
2022-08-29T05:54:52.499Z,98150.13
2022-08-29T05:56:53.843Z,98155.25
2022-08-29T05:58:55.156Z,98154.38
2022-08-29T06:00:56.474Z,98163.78
2022-08-29T06:02:57.938Z,98159.50
2022-08-29T06:04:59.350Z,98159.44
2022-08-29T06:07:00.657Z,98160.28
2022-08-29T06:09:01.999Z,98160.31
2022-08-29T06:11:03.311Z,98157.72
2022-08-29T06:13:04.626Z,98157.59
2022-08-29T06:15:06.583Z,98163.59
2022-08-29T06:17:09.269Z,98169.53
2022-08-29T06:19:11.889Z,98171.38
2022-08-29T06:21:13.191Z,98170.53
2022-08-29T06:23:14.532Z,98178.16
2022-08-29T06:25:37.947Z,98180.63
2022-08-29T06:27:37.251Z,98180.63
2022-08-29T06:29:43.494Z,98173.88
2022-08-29T06:31:45.210Z,98177.28
2022-08-29T06:33:46.520Z,98178.16
2022-08-29T06:35:47.850Z,98186.59
2022-08-29T06:37:49.159Z,98185.59
2022-08-29T06:39:50.534Z,98185.53
2022-08-29T06:41:51.905Z,98190.66
2022-08-29T06:43:53.211Z,98188.09
2022-08-29T06:45:54.579Z,98186.41
2022-08-29T06:47:56.111Z,98192.41
2022-08-29T06:49:57.420Z,98190.66
2022-08-29T06:51:58.830Z,98185.38
2022-08-29T06:54:00.263Z,98184.34
2022-08-29T06:56:02.362Z,98190.91
2022-08-29T06:58:03.701Z,98181.59
2022-08-29T07:00:12.419Z,98189.28
2022-08-29T07:02:22.801Z,98189.50
2022-08-29T07:04:26.725Z,98196.44
2022-08-29T07:06:28.339Z,98203.53
2022-08-29T07:08:29.649Z,98199.56
2022-08-29T07:10:30.951Z,98203.06
2022-08-29T07:12:32.310Z,98198.94
2022-08-29T07:14:33.624Z,98199.84
2022-08-29T07:16:35.591Z,98205.06
2022-08-29T07:18:36.908Z,98206.81
2022-08-29T07:20:39.393Z,98201.75
2022-08-29T07:22:40.875Z,98201.75
2022-08-29T07:24:42.195Z,98194.97
2022-08-29T07:26:43.662Z,98195.88
2022-08-29T07:28:47.233Z,98197.59
2022-08-29T07:30:48.746Z,98201.03
2022-08-29T07:32:50.182Z,98195.97
2022-08-29T07:34:55.820Z,98205.34
2022-08-29T07:36:57.476Z,98201.94
2022-08-29T07:38:58.800Z,98197.84
2022-08-29T07:41:00.203Z,98202.47
2022-08-29T07:43:02.154Z,98192.78
2022-08-29T07:45:03.498Z,98206.72
2022-08-29T07:47:05.046Z,98203.09
2022-08-29T07:49:07.146Z,98198.09
2022-08-29T07:51:10.681Z,98201.47
2022-08-29T07:53:12.124Z,98202.72
2022-08-29T07:55:13.598Z,98203.72
2022-08-29T07:57:14.894Z,98197.75
2022-08-29T07:59:16.224Z,98201.06
2022-08-29T08:01:21.028Z,98203.44
2022-08-29T08:03:23.075Z,98202.56
2022-08-29T08:05:24.483Z,98208.53
2022-08-29T08:07:29.387Z,98212.53
2022-08-29T08:09:31.011Z,98212.47
2022-08-29T08:11:32.351Z,98207.00
2022-08-29T08:13:33.748Z,98213.97
2022-08-29T08:15:35.085Z,98208.66
2022-08-29T08:17:38.900Z,98212.28
2022-08-29T08:19:43.295Z,98216.22
2022-08-29T08:21:49.632Z,98202.78
2022-08-29T08:23:52.241Z,98214.44
2022-08-29T08:25:53.585Z,98207.19
2022-08-29T08:27:54.952Z,98207.22
2022-08-29T08:29:59.737Z,98213.09
2022-08-29T08:32:01.392Z,98216.47
2022-08-29T08:34:02.810Z,98217.28
2022-08-29T08:36:04.137Z,98218.13
2022-08-29T08:38:05.451Z,98222.41
2022-08-29T08:40:06.881Z,98224.09
2022-08-29T08:42:08.383Z,98222.41
2022-08-29T08:44:09.712Z,98224.19
2022-08-29T08:46:11.383Z,98225.81
2022-08-29T08:48:12.761Z,98223.19
2022-08-29T08:50:14.131Z,98218.03
2022-08-29T08:52:16.106Z,98219.69
2022-08-29T08:54:17.473Z,98223.06
2022-08-29T08:56:18.856Z,98229.03
2022-08-29T08:58:29.027Z,98229.00
2022-08-29T09:00:30.692Z,98221.25
2022-08-29T09:02:33.750Z,98225.59
2022-08-29T09:04:35.179Z,98228.94
2022-08-29T09:06:36.555Z,98232.34
2022-08-29T09:08:38.074Z,98232.34
2022-08-29T09:10:39.414Z,98233.16
2022-08-29T09:12:41.236Z,98231.56
2022-08-29T09:14:42.660Z,98225.59
2022-08-29T09:16:44.019Z,98226.47
2022-08-29T09:18:47.885Z,98225.63
2022-08-29T09:20:57.018Z,98227.28
2022-08-29T09:22:59.105Z,98223.88
2022-08-29T09:25:00.448Z,98228.94
2022-08-29T09:27:01.760Z,98214.41
2022-08-29T09:29:03.195Z,98222.16
2022-08-29T09:31:04.583Z,98221.31
2022-08-29T09:33:07.705Z,98219.63
2022-08-29T09:35:10.037Z,98222.19
2022-08-29T09:37:11.607Z,98218.78
2022-08-29T09:39:12.924Z,98226.38
2022-08-29T09:41:15.216Z,98227.38
2022-08-29T09:43:17.083Z,98221.38
2022-08-29T09:45:18.548Z,98229.91
2022-08-29T09:47:20.636Z,98231.63
2022-08-29T09:49:22.569Z,98233.50
2022-08-29T09:51:24.507Z,98242.03
2022-08-29T09:53:25.969Z,98238.56
2022-08-29T09:55:27.425Z,98248.72
2022-08-29T09:57:28.774Z,98238.47
2022-08-29T09:59:30.157Z,98232.50
2022-08-29T10:01:32.433Z,98233.44
2022-08-29T10:03:39.142Z,98230.84
2022-08-29T10:05:44.268Z,98227.44
2022-08-29T10:07:45.684Z,98233.28
2022-08-29T10:09:47.002Z,98227.28
2022-08-29T10:11:54.262Z,98222.94
2022-08-29T10:13:57.661Z,98231.47
2022-08-29T10:15:59.026Z,98220.34
2022-08-29T10:18:20.116Z,98233.16
2022-08-29T10:20:21.736Z,98229.72
2022-08-29T10:24:25.758Z,98233.94
2022-08-29T10:26:27.127Z,98239.03
2022-08-29T10:28:28.435Z,98227.09
2022-08-29T10:30:29.803Z,98224.53
2022-08-29T10:32:31.283Z,98227.06
2022-08-29T10:34:32.599Z,98229.63
2022-08-29T10:36:34.246Z,98229.63
2022-08-29T10:38:35.598Z,98235.59
2022-08-29T10:40:37.903Z,98226.16
2022-08-29T10:42:44.569Z,98231.28
2022-08-29T10:44:45.890Z,98238.09
2022-08-29T10:46:47.207Z,98230.41
2022-08-29T10:48:49.075Z,98233.84
2022-08-29T10:50:50.644Z,98228.72
2022-08-29T10:52:52.428Z,98232.97
2022-08-29T10:54:53.759Z,98231.28
2022-08-29T10:56:55.077Z,98235.53
2022-08-29T10:58:56.935Z,98234.69
2022-08-29T11:00:58.408Z,98232.13
2022-08-29T11:02:59.808Z,98232.94
2022-08-29T11:05:01.172Z,98228.66
2022-08-29T11:07:02.565Z,98235.47
2022-08-29T11:09:04.000Z,98234.56
2022-08-29T11:11:05.403Z,98230.25
2022-08-29T11:13:06.797Z,98230.19
2022-08-29T11:15:08.543Z,98226.78
2022-08-29T11:17:10.096Z,98227.66
2022-08-29T11:19:11.424Z,98223.31
2022-08-29T11:21:12.761Z,98225.06
2022-08-29T11:23:14.134Z,98222.44
2022-08-29T11:25:15.956Z,98218.16
2022-08-29T11:27:17.315Z,98222.38
2022-08-29T11:29:18.745Z,98215.59
2022-08-29T11:31:20.116Z,98225.06
2022-08-29T11:33:22.260Z,98186.22
2022-08-29T11:35:23.612Z,98219.78
2022-08-29T11:37:25.600Z,98220.63
2022-08-29T11:39:26.919Z,98221.47
2022-08-29T11:41:29.174Z,98213.78
2022-08-29T11:43:31.127Z,98218.06
2022-08-29T11:45:36.900Z,98227.41
2022-08-29T11:47:40.857Z,98219.72
2022-08-29T11:49:42.853Z,98217.09
2022-08-29T11:51:44.177Z,98213.66
2022-08-29T11:53:45.500Z,98215.31
2022-08-29T11:55:46.810Z,98215.28
2022-08-29T11:57:48.139Z,98221.19
2022-08-29T11:59:49.486Z,98217.78
2022-08-29T12:01:50.858Z,98226.31
2022-08-29T12:03:52.264Z,98221.13
2022-08-29T12:05:53.839Z,98216.81
2022-08-29T12:07:55.386Z,98215.06
2022-08-29T12:09:56.726Z,98213.31
2022-08-29T12:11:58.115Z,98216.69
2022-08-29T12:13:59.564Z,98209.81
2022-08-29T12:16:02.763Z,98214.94
2022-08-29T12:18:04.421Z,98216.59
2022-08-29T12:20:07.536Z,98212.28
2022-08-29T12:22:14.126Z,98208.81
2022-08-29T12:24:23.791Z,98207.06
2022-08-29T12:26:25.104Z,98208.72
2022-08-29T12:28:31.301Z,98207.84
2022-08-29T12:30:32.734Z,98202.66
2022-08-29T12:32:34.123Z,98202.63
2022-08-29T12:34:35.895Z,98206.84
2022-08-29T12:36:37.386Z,98200.84
2022-08-29T12:38:42.026Z,98205.13
2022-08-29T12:40:43.944Z,98200.78
2022-08-29T12:42:45.371Z,98207.63
2022-08-29T12:44:46.884Z,98203.34
2022-08-29T12:46:48.304Z,98199.00
2022-08-29T12:48:57.650Z,98201.56
2022-08-29T12:51:00.775Z,98200.72
2022-08-29T12:53:02.288Z,98193.91
2022-08-29T12:55:03.626Z,98193.06
2022-08-29T12:57:04.972Z,98193.06
2022-08-29T12:59:06.421Z,98195.59
2022-08-29T13:01:07.871Z,98197.28
2022-08-29T13:03:09.528Z,98195.63
2022-08-29T13:05:16.824Z,98185.38
2022-08-29T13:07:18.494Z,98176.91
2022-08-29T13:09:19.873Z,98176.06
2022-08-29T13:11:21.248Z,98184.59
2022-08-29T13:13:22.638Z,98180.25
2022-08-29T13:15:30.832Z,98168.31
2022-08-29T13:17:34.552Z,98175.13
2022-08-29T13:19:36.312Z,98166.53
2022-08-29T13:21:37.636Z,98162.31
2022-08-29T13:23:39.203Z,98165.72
2022-08-29T13:25:40.597Z,98162.31
2022-08-29T13:27:42.045Z,98157.13
2022-08-29T13:29:43.401Z,98162.22
2022-08-29T13:31:44.863Z,98160.53
2022-08-29T13:33:46.238Z,98153.59
2022-08-29T13:35:47.551Z,98160.50
2022-08-29T13:37:48.864Z,98160.50
2022-08-29T13:39:50.233Z,98159.66
2022-08-29T13:41:51.649Z,98159.66
2022-08-29T13:43:52.969Z,98163.09
2022-08-29T13:45:54.316Z,98154.50
2022-08-29T13:47:55.761Z,98151.97
2022-08-29T13:49:57.139Z,98155.44
2022-08-29T13:51:58.566Z,98149.47
2022-08-29T13:53:59.932Z,98158.88
2022-08-29T13:56:01.298Z,98158.94
2022-08-29T13:58:02.939Z,98154.75
2022-08-29T14:00:05.260Z,98158.34
2022-08-29T14:02:09.076Z,98151.63
2022-08-29T14:04:36.820Z,98153.38
2022-08-29T14:06:51.471Z,98150.81
2022-08-29T14:08:53.186Z,98152.53
2022-08-29T14:10:54.531Z,98157.69
2022-08-29T14:12:55.867Z,98150.91
2022-08-29T14:14:57.193Z,98155.16
2022-08-29T14:16:58.793Z,98153.38
2022-08-29T14:19:00.187Z,97983.88
2022-08-29T14:21:01.498Z,98157.63
2022-08-29T14:23:02.844Z,98155.06
2022-08-29T14:25:04.262Z,98167.09
2022-08-29T14:27:05.570Z,98161.16
2022-08-29T14:29:06.962Z,98166.25
2022-08-29T14:31:08.333Z,98167.94
2022-08-29T14:33:09.739Z,98166.25
2022-08-29T14:35:11.315Z,98162.03
2022-08-29T14:37:27.706Z,98160.41
2022-08-29T14:39:29.032Z,98164.72
2022-08-29T14:41:30.356Z,98165.72
2022-08-29T14:43:34.239Z,98154.72
2022-08-29T14:45:37.784Z,98161.69
2022-08-29T14:47:39.227Z,98162.69
2022-08-29T14:49:40.599Z,98152.56
2022-08-29T14:51:42.112Z,98148.41
2022-08-29T14:53:51.566Z,98153.59
2022-08-29T14:55:56.039Z,98146.88
2022-08-29T14:57:57.423Z,98148.66
2022-08-29T14:59:58.755Z,98147.81
2022-08-29T15:02:00.152Z,98146.09
2022-08-29T15:04:01.593Z,98139.31
2022-08-29T15:06:02.933Z,98145.28
2022-08-29T15:08:06.502Z,98144.44
2022-08-29T15:10:08.239Z,98133.34
2022-08-29T15:12:09.609Z,98135.94
2022-08-29T15:14:10.967Z,98141.97
2022-08-29T15:16:12.412Z,98142.84
2022-08-29T15:18:30.589Z,98136.06
2022-08-29T15:20:37.699Z,98147.19
2022-08-29T15:22:39.944Z,98139.44
2022-08-29T15:24:41.280Z,98136.88
2022-08-29T15:26:44.919Z,98141.03
2022-08-29T15:28:46.257Z,98129.06
2022-08-29T15:30:47.739Z,98130.78
2022-08-29T15:32:49.400Z,98138.56
2022-08-29T15:34:50.756Z,98135.22
2022-08-29T15:36:52.286Z,98130.16
2022-08-29T15:38:53.607Z,98137.94
2022-08-29T15:40:55.017Z,98141.34
2022-08-29T15:42:56.472Z,98142.22
2022-08-29T15:44:57.896Z,98135.38
2022-08-29T15:46:59.250Z,98135.38
2022-08-29T15:49:02.828Z,98141.38
2022-08-29T15:51:04.986Z,98137.16
2022-08-29T15:53:06.551Z,98131.19
2022-08-29T15:55:08.035Z,98126.94
2022-08-29T15:57:09.527Z,98134.63
2022-08-29T15:59:10.848Z,98130.34
2022-08-29T16:01:12.255Z,98132.88
2022-08-29T16:03:13.692Z,98130.31
2022-08-29T16:05:15.051Z,98132.97
2022-08-29T16:07:16.881Z,98123.63
2022-08-29T16:09:18.216Z,98127.06
2022-08-29T16:11:19.567Z,98137.38
2022-08-29T16:13:21.132Z,98128.88
2022-08-29T16:15:22.886Z,98122.09
2022-08-29T16:17:24.272Z,98123.00
2022-08-29T16:19:25.694Z,98123.88
2022-08-29T16:21:27.010Z,98128.16
2022-08-29T16:23:28.319Z,98119.69
2022-08-29T16:25:29.683Z,98120.53
2022-08-29T16:27:31.009Z,98129.94
2022-08-29T16:29:33.834Z,98132.47
2022-08-29T16:31:35.264Z,98130.78
2022-08-29T16:33:36.628Z,98140.25
2022-08-29T16:35:37.963Z,98126.66
2022-08-29T16:37:39.286Z,98125.84
2022-08-29T16:39:40.631Z,98120.72
2022-08-29T16:41:42.562Z,98127.56
2022-08-29T16:43:43.927Z,98127.63
2022-08-29T16:45:45.474Z,98129.34
2022-08-29T16:47:47.250Z,98124.28
2022-08-29T16:49:48.610Z,98119.19
2022-08-29T16:51:49.988Z,98122.63
2022-08-29T16:53:51.304Z,98117.53
2022-08-29T16:55:52.632Z,98121.81
2022-08-29T16:58:12.775Z,98119.31
2022-08-29T17:00:14.178Z,98117.63
2022-08-29T17:02:15.606Z,98127.00
2022-08-29T17:04:16.931Z,98119.38
2022-08-29T17:06:18.316Z,98126.22
2022-08-29T17:08:19.599Z,98125.38
2022-08-29T17:10:20.879Z,98127.13
2022-08-29T17:12:22.164Z,98124.59
2022-08-29T17:14:25.830Z,98126.28
2022-08-29T17:16:27.178Z,98134.88
2022-08-29T17:18:29.119Z,98137.47
2022-08-29T17:20:34.196Z,98140.88
2022-08-29T17:22:38.266Z,98139.16
2022-08-29T17:24:40.322Z,98132.38
2022-08-29T17:26:42.340Z,98139.28
2022-08-29T17:28:44.237Z,98141.00
2022-08-29T17:30:45.599Z,98135.88
2022-08-29T17:32:47.007Z,98136.75
2022-08-29T17:34:49.144Z,98142.75
2022-08-29T17:36:50.515Z,98137.63
2022-08-29T17:38:51.851Z,98133.38
2022-08-29T17:40:53.693Z,98139.38
2022-08-29T17:42:55.117Z,98135.16
2022-08-29T17:44:57.800Z,98136.03
2022-08-29T17:46:59.186Z,98140.28
2022-08-29T17:49:04.220Z,98144.56
2022-08-29T17:51:08.369Z,98145.47
2022-08-29T17:53:09.765Z,98149.75
2022-08-29T17:55:11.197Z,98153.16
2022-08-29T17:57:12.527Z,98146.34
2022-08-29T17:59:13.840Z,98143.81
2022-08-29T18:01:16.530Z,98142.97
2022-08-29T18:03:19.531Z,98149.81
2022-08-29T18:05:20.942Z,98150.69
2022-08-29T18:07:22.312Z,98160.09
2022-08-29T18:09:23.654Z,98157.56
2022-08-29T18:11:25.003Z,98156.69
2022-08-29T18:13:26.315Z,98149.88
2022-08-29T18:15:28.396Z,98158.47
2022-08-29T18:17:32.075Z,98163.56
2022-08-29T18:19:33.502Z,98166.13
2022-08-29T18:21:34.923Z,98172.13
2022-08-29T18:23:36.252Z,98172.19
2022-08-29T18:25:37.580Z,98168.78
2022-08-29T18:27:43.607Z,98167.91
2022-08-29T18:29:45.599Z,98179.03
2022-08-29T18:31:46.964Z,98173.97
2022-08-29T18:34:03.619Z,98173.06
2022-08-29T18:36:05.041Z,98179.03
2022-08-29T18:38:07.855Z,98185.00
2022-08-29T18:40:09.479Z,98180.72
2022-08-29T18:42:30.443Z,98186.44
2022-08-29T18:44:32.327Z,98181.81
2022-08-29T18:46:33.699Z,98186.44
2022-08-29T18:48:35.023Z,98192.31
2022-08-29T18:50:39.099Z,98175.69
2022-08-29T18:52:40.450Z,98180.59
2022-08-29T18:54:41.907Z,98185.88
2022-08-29T18:56:43.259Z,98183.91
2022-08-29T18:58:44.720Z,98181.97
2022-08-29T19:00:46.163Z,98183.47
2022-08-29T19:02:50.766Z,98187.41
2022-08-29T19:04:52.086Z,98189.91
2022-08-29T19:06:53.501Z,98193.25
2022-08-29T19:08:54.827Z,98202.50
2022-08-29T19:10:56.231Z,98186.03
2022-08-29T19:12:58.231Z,98195.41
2022-08-29T19:15:00.185Z,98197.72
2022-08-29T19:17:03.003Z,98196.78
2022-08-29T19:19:05.462Z,98198.41
2022-08-29T19:21:14.003Z,98196.28
2022-08-29T19:23:16.077Z,98200.72
2022-08-29T19:25:17.468Z,98201.50
2022-08-29T19:27:41.750Z,98201.84
2022-08-29T19:29:40.428Z,98210.00
2022-08-29T19:31:44.826Z,98203.06
2022-08-29T19:33:46.232Z,98200.28
2022-08-29T19:35:49.765Z,98210.47
2022-08-29T19:37:51.894Z,98199.38
2022-08-29T19:39:53.400Z,98208.94
2022-08-29T19:41:54.779Z,98199.09
2022-08-29T19:43:56.836Z,98204.72
2022-08-29T19:46:02.213Z,98204.03
2022-08-29T19:48:03.813Z,98199.22
2022-08-29T19:50:05.131Z,98193.41
2022-08-29T19:52:06.746Z,98203.81
2022-08-29T19:54:08.091Z,98199.91
2022-08-29T19:56:09.892Z,98198.00
2022-08-29T19:58:11.909Z,98205.25
2022-08-29T20:00:13.964Z,98204.47
2022-08-29T20:02:15.564Z,98205.88
2022-08-29T20:04:17.264Z,98204.09
2022-08-29T20:06:18.752Z,98203.81
2022-08-29T20:08:21.134Z,98211.44
2022-08-29T20:10:22.837Z,98202.03
2022-08-29T20:12:24.256Z,98208.94
2022-08-29T20:14:25.587Z,98203.91
2022-08-29T20:16:27.427Z,98210.69
2022-08-29T20:18:28.791Z,98209.59
2022-08-29T20:20:30.521Z,98213.00
2022-08-29T20:22:31.875Z,98219.00
2022-08-29T20:24:34.409Z,98220.31
2022-08-29T20:26:35.810Z,98220.59
2022-08-29T20:28:37.124Z,98219.56
2022-08-29T20:30:38.516Z,98223.75
2022-08-29T20:32:39.864Z,98220.34
2022-08-29T20:34:41.361Z,98224.53
2022-08-29T20:37:01.271Z,98225.50
2022-08-29T20:39:02.660Z,98233.81
2022-08-29T20:41:04.579Z,98224.91
2022-08-29T20:43:06.937Z,98226.72
2022-08-29T20:45:08.269Z,98232.03
2022-08-29T20:47:09.656Z,98233.06
2022-08-29T20:49:13.939Z,98230.38
2022-08-29T20:51:15.250Z,98250.34
2022-08-29T20:53:32.081Z,98245.56
2022-08-29T20:55:34.220Z,98239.94
2022-08-29T20:57:39.070Z,98238.47
2022-08-29T20:59:40.436Z,98243.59
2022-08-29T21:01:43.197Z,98233.66
2022-08-29T21:04:03.265Z,98234.59
2022-08-29T21:06:04.738Z,98235.91
2022-08-29T21:08:06.064Z,98233.25
2022-08-29T21:10:07.609Z,98237.63
2022-08-29T21:12:08.938Z,98239.41
2022-08-29T21:14:10.340Z,98235.16
2022-08-29T21:16:11.854Z,98237.47
2022-08-29T21:18:13.309Z,98241.56
2022-08-29T21:20:14.627Z,98243.22
2022-08-29T21:22:16.395Z,98240.75
2022-08-29T21:24:17.801Z,98250.13
2022-08-29T21:26:19.188Z,98247.63
2022-08-29T21:28:20.524Z,98245.06
2022-08-29T21:30:23.752Z,98252.75
2022-08-29T21:32:25.148Z,98248.88
2022-08-29T21:34:26.559Z,98248.50
2022-08-29T21:36:29.059Z,98258.53
2022-08-29T21:38:30.440Z,98255.56
2022-08-29T21:40:31.906Z,98259.25
2022-08-29T21:42:33.283Z,98256.50
2022-08-29T21:44:34.644Z,98258.06
2022-08-29T21:46:36.021Z,98253.69
2022-08-29T21:48:37.399Z,98256.25
2022-08-29T21:50:38.790Z,98256.94
2022-08-29T21:52:40.173Z,98260.22
2022-08-29T21:54:41.496Z,98260.03
2022-08-29T21:56:43.052Z,98253.25
2022-08-29T21:58:44.458Z,98261.00
2022-08-29T22:00:45.847Z,98255.91
2022-08-29T22:02:47.260Z,98251.63
2022-08-29T22:04:48.651Z,98257.03
2022-08-29T22:06:52.822Z,98256.25
2022-08-29T22:08:54.398Z,98257.94
2022-08-29T22:10:56.844Z,98255.06
2022-08-29T22:12:58.247Z,98244.84
2022-08-29T22:15:18.155Z,98254.47
2022-08-29T22:17:19.508Z,98251.34
2022-08-29T22:19:21.047Z,98256.59
2022-08-29T22:21:22.400Z,98255.03
2022-08-29T22:23:24.550Z,98256.88
2022-08-29T22:25:26.031Z,98251.00
2022-08-29T22:27:27.369Z,98246.72
2022-08-29T22:29:28.722Z,98245.00
2022-08-29T22:31:31.911Z,98248.44
2022-08-29T22:33:33.339Z,98245.91
2022-08-29T22:35:34.668Z,98240.84
2022-08-29T22:37:36.841Z,98248.63
2022-08-29T22:39:39.418Z,98243.47
2022-08-29T22:41:45.422Z,98241.00
2022-08-29T22:43:48.734Z,98241.88
2022-08-29T22:45:50.686Z,98244.50
2022-08-29T22:47:54.508Z,98242.84
2022-08-29T22:49:55.859Z,98246.34
2022-08-29T22:51:57.196Z,98238.69
2022-08-29T22:54:17.048Z,98246.38
2022-08-29T22:56:18.375Z,98245.63
2022-08-29T22:58:19.703Z,98247.34
2022-08-29T23:00:21.078Z,98245.63
2022-08-29T23:02:22.528Z,98246.59
2022-08-29T23:04:23.887Z,98239.91
2022-08-29T23:06:25.294Z,98249.31
2022-08-29T23:08:26.677Z,98242.44
2022-08-29T23:10:28.487Z,98239.81
2022-08-29T23:12:30.111Z,98248.41
2022-08-29T23:14:31.443Z,98235.59
2022-08-29T23:16:35.611Z,98242.47
2022-08-29T23:18:36.969Z,98239.13
2022-08-29T23:20:38.512Z,98237.41
2022-08-29T23:22:42.831Z,98246.84
2022-08-29T23:24:53.791Z,98243.44
2022-08-29T23:26:59.979Z,98233.22
2022-08-29T23:29:01.357Z,98239.19
2022-08-29T23:31:02.755Z,98236.69
2022-08-29T23:33:04.179Z,98232.41
2022-08-29T23:35:05.515Z,98234.13
2022-08-29T23:37:06.869Z,98220.47
2022-08-29T23:39:08.227Z,98223.91
2022-08-29T23:41:09.544Z,98226.44
2022-08-29T23:43:10.899Z,98227.28
2022-08-29T23:45:12.214Z,98229.00
2022-08-29T23:47:13.551Z,98223.91
2022-08-29T23:49:15.051Z,98227.38
2022-08-29T23:51:16.436Z,98229.03
2022-08-29T23:53:17.857Z,98228.09
2022-08-29T23:55:19.284Z,98226.44
2022-08-29T23:57:20.696Z,98229.00
2022-08-29T23:59:40.574Z,98221.38
